createdAt,value
2018-03-25T00:02:25.909Z,11.23
2018-03-25T00:04:53.373Z,11.13
2018-03-25T00:07:20.831Z,8.97
2018-03-25T00:09:48.308Z,11.93
2018-03-25T00:12:15.771Z,11.10
2018-03-25T00:14:43.276Z,10.23
2018-03-25T00:17:10.743Z,10.87
2018-03-25T00:19:38.202Z,10.80
2018-03-25T00:22:05.657Z,12.40
2018-03-25T00:24:33.128Z,10.47
2018-03-25T00:27:00.596Z,11.90
2018-03-25T00:29:28.061Z,10.60
2018-03-25T00:31:55.544Z,12.07
2018-03-25T00:34:23.802Z,12.70
2018-03-25T00:36:51.276Z,10.93
2018-03-25T00:39:18.745Z,12.60
2018-03-25T00:42:06.286Z,13.10
2018-03-25T00:44:33.765Z,12.37
2018-03-25T00:47:01.228Z,12.27
2018-03-25T00:49:28.703Z,11.87
2018-03-25T00:51:56.160Z,12.70
2018-03-25T00:57:21.237Z,12.93
2018-03-25T00:59:49.477Z,10.60
2018-03-25T01:02:16.934Z,11.27
2018-03-25T01:04:44.471Z,11.03
2018-03-25T01:07:12.653Z,10.87
2018-03-25T01:09:40.865Z,11.77
2018-03-25T01:12:09.099Z,11.60
2018-03-25T01:14:36.571Z,12.10
2018-03-25T01:17:04.024Z,13.30
2018-03-25T01:19:31.492Z,10.30
2018-03-25T01:22:00.466Z,9.73
2018-03-25T01:24:34.205Z,13.00
2018-03-25T01:27:01.683Z,11.50
2018-03-25T01:29:29.908Z,12.37
2018-03-25T01:31:57.378Z,11.43
2018-03-25T01:34:25.220Z,10.93
2018-03-25T01:36:53.092Z,12.53
2018-03-25T01:39:20.857Z,11.53
2018-03-25T01:41:48.819Z,11.50
2018-03-25T01:44:16.682Z,10.20
2018-03-25T01:46:44.150Z,11.97
2018-03-25T01:49:11.624Z,10.60
2018-03-25T01:51:40.999Z,12.07
2018-03-25T01:54:08.452Z,11.60
2018-03-25T01:56:35.937Z,12.10
2018-03-25T01:59:03.401Z,13.20
2018-03-25T02:01:30.889Z,13.37
2018-03-25T02:03:58.351Z,12.30
2018-03-25T02:06:25.858Z,11.67
2018-03-25T02:08:53.310Z,11.57
2018-03-25T02:11:20.756Z,10.43
2018-03-25T02:13:48.230Z,14.90
2018-03-25T02:16:15.694Z,15.23
2018-03-25T02:18:43.552Z,13.40
2018-03-25T02:21:11.721Z,11.83
2018-03-25T02:23:39.595Z,13.83
2018-03-25T02:26:07.460Z,11.13
2018-03-25T02:28:35.327Z,11.33
2018-03-25T02:31:04.114Z,12.70
2018-03-25T02:33:32.086Z,13.50
2018-03-25T02:35:59.951Z,14.90
2018-03-25T02:41:23.959Z,12.77
2018-03-25T02:43:51.712Z,11.00
2018-03-25T02:46:19.685Z,13.40
2018-03-25T02:48:47.154Z,13.40
2018-03-25T02:51:14.609Z,13.53
2018-03-25T02:53:42.078Z,15.93
2018-03-25T02:56:09.539Z,11.57
2018-03-25T02:58:37.018Z,10.87
2018-03-25T03:01:04.479Z,12.30
2018-03-25T03:03:31.942Z,10.33
2018-03-25T03:05:59.409Z,13.87
2018-03-25T03:08:27.654Z,12.87
2018-03-25T03:10:55.124Z,13.87
2018-03-25T03:13:22.591Z,16.40
2018-03-25T03:15:50.057Z,13.10
2018-03-25T03:18:18.066Z,13.57
2018-03-25T03:20:45.764Z,11.97
2018-03-25T03:23:13.764Z,15.00
2018-03-25T03:25:55.389Z,14.90
2018-03-25T03:28:23.258Z,13.10
2018-03-25T03:30:51.330Z,13.20
2018-03-25T03:33:19.406Z,12.10
2018-03-25T03:35:47.269Z,13.33
2018-03-25T03:38:15.341Z,13.70
2018-03-25T03:40:43.209Z,13.13
2018-03-25T03:43:11.077Z,15.97
2018-03-25T03:45:38.947Z,13.43
2018-03-25T03:48:06.917Z,13.47
2018-03-25T03:50:34.780Z,13.97
2018-03-25T03:53:02.650Z,13.93
2018-03-25T03:55:30.625Z,16.53
2018-03-25T03:57:58.485Z,15.60
2018-03-25T04:00:26.457Z,15.70
2018-03-25T04:02:54.322Z,13.20
2018-03-25T04:05:21.988Z,11.27
2018-03-25T04:07:50.057Z,14.30
2018-03-25T04:10:17.925Z,13.83
2018-03-25T04:12:45.894Z,15.60
2018-03-25T04:15:14.082Z,14.07
2018-03-25T04:17:41.945Z,15.83
2018-03-25T04:20:09.812Z,14.53
2018-03-25T04:22:37.675Z,15.63
2018-03-25T04:25:06.361Z,13.97
2018-03-25T04:27:34.228Z,15.93
2018-03-25T04:30:02.920Z,16.40
2018-03-25T04:32:30.886Z,15.40
2018-03-25T04:34:58.753Z,22.57
2018-03-25T04:37:26.717Z,12.93
2018-03-25T04:39:54.585Z,14.57
2018-03-25T04:42:22.554Z,15.63
2018-03-25T04:44:50.426Z,18.33
2018-03-25T04:47:18.294Z,19.13
2018-03-25T04:49:46.161Z,19.07
2018-03-25T04:52:14.128Z,16.40
2018-03-25T04:54:42.102Z,15.43
2018-03-25T04:57:09.789Z,13.93
2018-03-25T04:59:37.634Z,15.37
2018-03-25T05:02:05.492Z,15.83
2018-03-25T05:04:33.466Z,16.13
2018-03-25T05:07:01.330Z,15.07
2018-03-25T05:09:29.130Z,17.03
2018-03-25T05:11:57.072Z,19.57
2018-03-25T05:14:24.841Z,16.50
2018-03-25T05:16:52.703Z,17.90
2018-03-25T05:19:20.365Z,20.87
2018-03-25T05:21:47.836Z,16.90
2018-03-25T05:24:15.287Z,17.90
2018-03-25T05:26:42.763Z,17.67
2018-03-25T05:29:10.224Z,22.10
2018-03-25T05:31:38.468Z,18.27
2018-03-25T05:34:06.370Z,17.77
2018-03-25T05:36:34.211Z,20.03
2018-03-25T05:39:02.086Z,24.37
2018-03-25T05:41:30.042Z,18.30
2018-03-25T05:46:56.085Z,17.63
2018-03-25T05:49:23.544Z,18.90
2018-03-25T05:51:51.018Z,18.10
2018-03-25T05:54:18.485Z,21.20
2018-03-25T05:56:45.940Z,20.20
2018-03-25T05:59:13.587Z,20.70
2018-03-25T06:01:41.553Z,18.07
2018-03-25T06:04:09.654Z,19.27
2018-03-25T06:06:38.822Z,18.10
2018-03-25T06:09:06.689Z,18.93
2018-03-25T06:11:34.566Z,23.47
2018-03-25T06:14:02.527Z,21.60
2018-03-25T06:16:30.501Z,20.03
2018-03-25T06:18:58.373Z,21.10
2018-03-25T06:21:27.116Z,20.47
2018-03-25T06:23:56.043Z,23.77
2018-03-25T06:26:24.743Z,22.20
2018-03-25T06:28:53.466Z,21.40
2018-03-25T06:31:21.390Z,19.43
2018-03-25T06:33:48.964Z,19.27
2018-03-25T06:36:16.430Z,19.27
2018-03-25T06:38:43.915Z,21.63
2018-03-25T06:41:11.376Z,22.10
2018-03-25T06:43:38.848Z,18.77
2018-03-25T06:46:07.118Z,21.90
2018-03-25T06:48:36.079Z,27.37
2018-03-25T06:51:03.935Z,23.27
2018-03-25T06:53:31.595Z,22.17
2018-03-25T06:55:59.077Z,21.63
2018-03-25T06:58:26.554Z,28.00
2018-03-25T07:00:54.565Z,24.50
2018-03-25T07:03:22.231Z,27.73
2018-03-25T07:05:50.100Z,26.27
2018-03-25T07:08:17.775Z,27.73
2018-03-25T07:10:45.835Z,29.07
2018-03-25T07:13:13.713Z,28.10
2018-03-25T07:15:41.576Z,26.90
2018-03-25T07:18:09.539Z,22.90
2018-03-25T07:20:37.401Z,23.00
2018-03-25T07:28:53.730Z,30.30
2018-03-25T07:31:21.206Z,27.33
2018-03-25T07:33:48.673Z,21.73
2018-03-25T07:36:16.140Z,21.67
2018-03-25T07:38:43.603Z,23.27
2018-03-25T07:41:11.068Z,24.13
2018-03-25T07:43:38.530Z,21.90
2018-03-25T07:46:06.459Z,25.40
2018-03-25T07:48:34.131Z,28.93
2018-03-25T07:51:01.624Z,27.77
2018-03-25T07:53:29.113Z,26.00
2018-03-25T07:55:57.334Z,27.10
2018-03-25T07:58:24.834Z,23.63
2018-03-25T08:00:53.058Z,24.13
2018-03-25T08:03:20.526Z,21.23
2018-03-25T08:05:48.007Z,22.57
2018-03-25T08:08:15.832Z,26.73
2018-03-25T08:10:43.803Z,18.57
2018-03-25T08:13:11.675Z,24.50
2018-03-25T08:15:39.537Z,24.10
2018-03-25T08:18:08.226Z,26.67
2018-03-25T08:20:36.088Z,27.97
2018-03-25T08:23:03.961Z,24.67
2018-03-25T08:25:31.835Z,24.57
2018-03-25T08:28:00.026Z,26.90
2018-03-25T08:30:27.870Z,28.77
2018-03-25T08:32:55.734Z,25.63
2018-03-25T08:35:23.707Z,24.23
2018-03-25T08:37:51.775Z,22.23
2018-03-25T08:40:19.790Z,23.13
2018-03-25T08:42:47.718Z,21.10
2018-03-25T08:45:15.586Z,20.27
2018-03-25T08:47:43.550Z,17.50
2018-03-25T08:50:11.417Z,23.83
2018-03-25T09:04:11.417Z,22.17
2018-03-25T09:06:39.390Z,19.57
2018-03-25T09:09:07.060Z,21.73
2018-03-25T09:11:34.761Z,22.10
2018-03-25T09:14:02.684Z,20.90
2018-03-25T09:16:30.554Z,18.93
2018-03-25T09:18:58.421Z,22.13
2018-03-25T09:21:26.292Z,22.23
2018-03-25T09:23:54.256Z,21.50
2018-03-25T09:26:21.734Z,20.10
2018-03-25T09:28:49.199Z,19.67
2018-03-25T09:31:16.681Z,20.87
2018-03-25T09:33:44.138Z,22.83
2018-03-25T09:36:11.615Z,18.83
2018-03-25T09:38:39.844Z,21.77
2018-03-25T09:41:07.311Z,21.07
2018-03-25T09:43:34.827Z,23.07
2018-03-25T09:46:02.289Z,22.80
2018-03-25T09:48:29.750Z,25.17
2018-03-25T09:50:57.230Z,23.90
2018-03-25T09:53:24.698Z,19.57
2018-03-25T09:55:52.177Z,22.30
2018-03-25T09:58:19.630Z,25.63
2018-03-25T10:00:48.901Z,26.20
2018-03-25T10:03:21.987Z,22.80
2018-03-25T10:05:49.473Z,20.40
2018-03-25T10:08:16.945Z,20.97
2018-03-25T10:10:44.405Z,21.20
2018-03-25T10:13:12.650Z,17.03
2018-03-25T10:15:40.124Z,20.93
2018-03-25T10:18:07.606Z,19.77
2018-03-25T10:20:35.843Z,17.70
2018-03-25T10:23:03.309Z,15.47
2018-03-25T10:25:30.787Z,18.70
2018-03-25T10:27:58.257Z,21.10
2018-03-25T10:30:26.499Z,21.47
2018-03-25T10:32:53.979Z,20.00
2018-03-25T10:35:21.436Z,19.50
2018-03-25T10:37:48.950Z,19.90
2018-03-25T10:40:17.149Z,17.47
2018-03-25T10:42:44.614Z,16.20
2018-03-25T10:45:12.084Z,20.37
2018-03-25T10:47:39.560Z,18.80
2018-03-25T10:50:07.792Z,19.33
2018-03-25T10:52:35.261Z,18.60
2018-03-25T10:55:02.726Z,21.80
2018-03-25T10:57:30.193Z,20.23
2018-03-25T10:59:57.651Z,21.87
2018-03-25T11:02:25.123Z,19.43
2018-03-25T11:04:53.354Z,21.60
2018-03-25T11:07:20.822Z,20.80
2018-03-25T11:09:48.284Z,19.67
2018-03-25T11:12:15.769Z,19.87
2018-03-25T11:14:44.009Z,21.13
2018-03-25T11:17:11.653Z,21.87
2018-03-25T11:19:39.145Z,16.90
2018-03-25T11:22:06.627Z,19.03
2018-03-25T11:24:34.129Z,17.33
2018-03-25T11:27:01.581Z,20.27
2018-03-25T11:29:29.090Z,22.43
2018-03-25T11:31:56.620Z,19.07
2018-03-25T11:34:24.802Z,19.10
2018-03-25T11:36:52.642Z,17.60
2018-03-25T11:39:20.513Z,18.47
2018-03-25T11:41:47.965Z,22.10
2018-03-25T11:44:15.441Z,18.53
2018-03-25T11:46:42.920Z,17.17
2018-03-25T11:49:10.385Z,18.00
2018-03-25T11:51:37.844Z,17.63
2018-03-25T11:54:05.313Z,17.37
2018-03-25T11:56:33.540Z,16.97
2018-03-25T11:59:01.016Z,15.13
2018-03-25T12:01:29.247Z,18.23
2018-03-25T12:03:56.720Z,15.30
2018-03-25T12:06:24.179Z,17.17
2018-03-25T12:08:51.641Z,14.77
2018-03-25T12:11:19.095Z,16.27
2018-03-25T12:13:46.569Z,17.70
2018-03-25T12:16:14.024Z,13.43
2018-03-25T12:18:41.502Z,17.43
2018-03-25T12:21:08.963Z,17.73
2018-03-25T12:26:36.536Z,13.90
2018-03-25T12:29:04.014Z,13.43
2018-03-25T12:31:31.492Z,17.60
2018-03-25T12:33:59.732Z,16.33
2018-03-25T12:36:27.189Z,15.43
2018-03-25T12:38:54.662Z,16.67
2018-03-25T12:41:22.137Z,17.13
2018-03-25T12:43:50.375Z,17.73
2018-03-25T12:46:17.834Z,17.53
2018-03-25T12:48:45.314Z,19.43
2018-03-25T12:51:12.770Z,16.40
2018-03-25T12:53:40.233Z,17.67
2018-03-25T12:56:09.279Z,14.83
2018-03-25T12:58:36.741Z,13.30
2018-03-25T13:01:04.204Z,17.73
2018-03-25T13:03:31.665Z,16.43
2018-03-25T13:05:59.118Z,16.67
2018-03-25T13:08:26.587Z,19.73
2018-03-25T13:10:54.062Z,17.40
2018-03-25T13:13:21.570Z,18.17
2018-03-25T13:15:49.099Z,18.03
2018-03-25T13:18:16.505Z,19.83
2018-03-25T13:20:43.986Z,19.13
2018-03-25T13:23:12.218Z,17.13
2018-03-25T13:25:39.690Z,18.57
2018-03-25T13:28:07.156Z,19.03
2018-03-25T13:30:34.639Z,24.23
2018-03-25T13:33:02.117Z,17.03
2018-03-25T13:35:29.586Z,18.90
2018-03-25T13:37:57.813Z,19.37
2018-03-25T13:40:25.293Z,18.27
2018-03-25T13:42:52.755Z,24.40
2018-03-25T13:45:20.222Z,17.70
2018-03-25T13:47:47.696Z,18.07
2018-03-25T13:50:15.934Z,17.23
2018-03-25T13:52:43.396Z,16.17
2018-03-25T13:55:10.845Z,16.57
2018-03-25T13:57:38.315Z,18.23
2018-03-25T14:00:05.772Z,14.93
2018-03-25T14:02:33.248Z,15.37
2018-03-25T14:05:00.716Z,15.23
2018-03-25T14:07:28.973Z,15.23
2018-03-25T14:09:56.439Z,16.37
2018-03-25T14:12:23.913Z,18.03
2018-03-25T14:14:52.149Z,16.33
2018-03-25T14:17:19.610Z,16.53
2018-03-25T14:19:47.075Z,16.43
2018-03-25T14:22:14.564Z,14.20
2018-03-25T14:24:42.792Z,15.47
2018-03-25T14:27:10.257Z,16.87
2018-03-25T14:29:37.762Z,17.93
2018-03-25T14:32:05.999Z,15.70
2018-03-25T14:34:33.470Z,15.83
2018-03-25T14:37:00.940Z,17.10
2018-03-25T14:39:28.389Z,15.73
2018-03-25T14:41:55.861Z,14.10
2018-03-25T14:44:24.093Z,16.60
2018-03-25T14:46:51.555Z,17.70
2018-03-25T14:49:19.023Z,19.47
2018-03-25T14:51:46.503Z,18.63
2018-03-25T14:54:13.959Z,19.23
2018-03-25T14:56:41.441Z,15.60
2018-03-25T14:59:09.669Z,18.13
2018-03-25T15:01:37.150Z,17.43
2018-03-25T15:04:04.630Z,19.13
2018-03-25T15:06:32.845Z,15.70
2018-03-25T15:09:00.320Z,15.60
2018-03-25T15:11:31.182Z,16.40
2018-03-25T15:13:58.702Z,18.00
2018-03-25T15:16:26.187Z,21.83
2018-03-25T15:18:53.653Z,17.43
2018-03-25T15:21:21.116Z,19.93
2018-03-25T15:23:48.587Z,18.87
2018-03-25T15:26:16.825Z,15.93
2018-03-25T15:28:44.310Z,21.20
2018-03-25T15:31:11.778Z,18.20
2018-03-25T15:33:39.226Z,17.00
2018-03-25T15:36:06.680Z,15.70
2018-03-25T15:38:34.141Z,15.17
2018-03-25T15:41:02.374Z,14.33
2018-03-25T15:43:29.835Z,16.93
2018-03-25T15:45:58.050Z,16.37
2018-03-25T15:48:25.516Z,15.27
2018-03-25T15:50:53.731Z,17.80
2018-03-25T15:53:21.195Z,23.43
2018-03-25T15:55:48.647Z,15.77
2018-03-25T15:58:16.108Z,14.93
2018-03-25T16:00:43.576Z,15.17
2018-03-25T16:03:11.025Z,16.60
2018-03-25T16:05:38.479Z,14.87
2018-03-25T16:08:05.928Z,14.37
2018-03-25T16:10:33.416Z,14.33
2018-03-25T16:13:01.633Z,15.60
2018-03-25T16:15:29.859Z,13.03
2018-03-25T16:17:57.315Z,15.47
2018-03-25T16:20:24.786Z,14.27
2018-03-25T16:22:52.248Z,14.90
2018-03-25T16:25:19.700Z,14.47
2018-03-25T16:27:47.158Z,12.73
2018-03-25T16:30:14.625Z,13.13
2018-03-25T16:32:42.090Z,13.67
2018-03-25T16:35:09.551Z,15.10
2018-03-25T16:37:37.015Z,12.33
2018-03-25T16:40:04.486Z,15.77
2018-03-25T16:42:32.698Z,16.00
2018-03-25T16:45:00.156Z,14.83
2018-03-25T16:47:27.608Z,12.23
2018-03-25T16:49:55.076Z,15.63
2018-03-25T16:52:22.525Z,16.27
2018-03-25T16:54:49.989Z,15.33
2018-03-25T16:57:17.468Z,15.87
2018-03-25T16:59:44.941Z,17.80
2018-03-25T17:02:12.385Z,14.43
2018-03-25T17:04:39.850Z,13.10
2018-03-25T17:07:07.325Z,14.00
2018-03-25T17:09:34.825Z,13.87
2018-03-25T17:12:02.292Z,14.70
2018-03-25T17:14:30.998Z,15.00
2018-03-25T17:16:58.610Z,15.13
2018-03-25T17:19:34.158Z,17.33
2018-03-25T17:22:02.379Z,16.73
2018-03-25T17:24:29.871Z,17.27
2018-03-25T17:26:57.360Z,17.60
2018-03-25T17:29:24.847Z,19.77
2018-03-25T17:31:52.322Z,15.43
2018-03-25T17:34:20.546Z,16.33
2018-03-25T17:36:48.768Z,18.70
2018-03-25T17:39:16.226Z,16.93
2018-03-25T17:41:43.697Z,17.20
2018-03-25T17:44:11.153Z,14.63
2018-03-25T17:46:38.617Z,15.13
2018-03-25T17:49:06.090Z,20.67
2018-03-25T17:51:33.552Z,13.37
2018-03-25T17:54:01.009Z,15.27
2018-03-25T17:56:28.467Z,14.50
2018-03-25T17:58:56.686Z,14.63
2018-03-25T18:01:24.147Z,12.67
2018-03-25T18:03:51.605Z,16.20
2018-03-25T18:06:19.059Z,17.87
2018-03-25T18:08:46.523Z,14.37
2018-03-25T18:11:13.980Z,15.27
2018-03-25T18:13:41.652Z,14.77
2018-03-25T18:16:09.131Z,15.47
2018-03-25T18:18:45.058Z,14.93
2018-03-25T18:21:31.462Z,14.53
2018-03-25T18:23:58.936Z,13.63
2018-03-25T18:26:26.395Z,18.37
2018-03-25T18:28:53.858Z,13.90
2018-03-25T18:31:21.312Z,15.13
2018-03-25T18:33:48.770Z,14.60
2018-03-25T18:36:16.234Z,16.27
2018-03-25T18:38:43.702Z,12.83
2018-03-25T18:41:11.159Z,14.43
2018-03-25T18:43:38.621Z,13.23
2018-03-25T18:46:06.085Z,13.70
2018-03-25T18:48:33.548Z,13.47
2018-03-25T18:51:00.998Z,17.07
2018-03-25T18:53:28.455Z,15.40
2018-03-25T18:55:55.903Z,13.57
2018-03-25T18:58:23.365Z,15.20
2018-03-25T19:00:50.823Z,16.97
2018-03-25T19:03:18.280Z,18.03
2018-03-25T19:05:45.726Z,13.00
2018-03-25T19:08:13.196Z,13.70
2018-03-25T19:10:40.672Z,15.83
2018-03-25T19:13:08.142Z,16.17
2018-03-25T19:15:36.361Z,15.33
2018-03-25T19:18:03.829Z,16.40
2018-03-25T19:20:31.328Z,16.43
2018-03-25T19:23:23.747Z,15.17
2018-03-25T19:25:51.227Z,14.67
2018-03-25T19:28:19.449Z,14.47
2018-03-25T19:30:46.924Z,19.47
2018-03-25T19:33:30.297Z,20.50
2018-03-25T19:35:57.793Z,14.40
2018-03-25T19:38:25.259Z,16.93
2018-03-25T19:40:52.738Z,19.67
2018-03-25T19:43:20.340Z,18.43
2018-03-25T19:45:47.881Z,17.63
2018-03-25T19:48:16.199Z,16.80
2018-03-25T19:50:43.728Z,18.03
2018-03-25T19:53:12.037Z,17.57
2018-03-25T19:55:39.578Z,21.10
2018-03-25T19:58:07.276Z,14.23
2018-03-25T20:00:35.026Z,19.77
2018-03-25T20:03:02.615Z,18.37
2018-03-25T20:05:39.955Z,20.73
2018-03-25T20:08:08.316Z,19.83
2018-03-25T20:10:38.867Z,19.87
2018-03-25T20:13:07.130Z,19.87
2018-03-25T20:15:45.325Z,22.70
2018-03-25T20:18:12.889Z,19.07
2018-03-25T20:20:43.400Z,22.33
2018-03-25T20:23:14.203Z,20.23
2018-03-25T20:25:41.717Z,20.23
2018-03-25T20:28:09.339Z,23.97
2018-03-25T20:30:37.631Z,19.53
2018-03-25T20:33:05.174Z,22.33
2018-03-25T20:35:35.753Z,18.87
2018-03-25T20:38:04.082Z,19.83
2018-03-25T20:40:31.648Z,19.73
2018-03-25T20:42:59.210Z,21.90
2018-03-25T20:45:32.940Z,20.20
2018-03-25T20:48:00.507Z,24.03
2018-03-25T20:50:28.031Z,25.50
2018-03-25T20:52:55.550Z,23.43
2018-03-25T20:55:23.922Z,20.87
2018-03-25T20:57:51.444Z,21.43
2018-03-25T21:00:18.912Z,22.23
2018-03-25T21:02:46.390Z,23.73
2018-03-25T21:05:14.634Z,24.37
2018-03-25T21:07:42.101Z,21.47
2018-03-25T21:10:09.569Z,27.00
2018-03-25T21:12:37.033Z,25.10
2018-03-25T21:21:10.028Z,30.30
2018-03-25T21:23:38.267Z,26.73
2018-03-25T21:26:05.719Z,26.60
2018-03-25T21:28:33.188Z,25.73
2018-03-25T21:31:00.691Z,31.00
2018-03-25T21:33:28.120Z,31.57
2018-03-25T21:35:55.599Z,35.50
2018-03-25T21:38:23.066Z,41.33
2018-03-25T21:40:50.527Z,35.03
2018-03-25T21:43:18.000Z,39.00
2018-03-25T21:45:45.463Z,39.90
2018-03-25T21:48:13.711Z,37.87
2018-03-25T21:50:41.177Z,36.37
2018-03-25T21:53:08.654Z,36.30
2018-03-25T21:55:36.110Z,34.87
2018-03-25T21:58:04.354Z,34.23
2018-03-25T22:00:31.816Z,32.23
2018-03-25T22:03:07.139Z,36.07
2018-03-25T22:05:34.604Z,32.83
2018-03-25T22:08:02.087Z,31.70
2018-03-25T22:10:29.551Z,31.20
2018-03-25T22:12:57.011Z,32.70
2018-03-25T22:15:24.470Z,26.03
2018-03-25T22:17:51.954Z,30.30
2018-03-25T22:20:20.192Z,30.47
2018-03-25T22:22:47.666Z,33.20
2018-03-25T22:25:15.125Z,28.80
2018-03-25T22:27:42.596Z,35.27
2018-03-25T22:30:25.565Z,27.50
2018-03-25T22:32:53.030Z,34.33
2018-03-25T22:35:20.494Z,36.47
2018-03-25T22:37:47.972Z,38.00
2018-03-25T22:40:15.438Z,38.43
2018-03-25T22:42:43.689Z,34.33
2018-03-25T22:45:11.149Z,34.63
2018-03-25T22:47:38.609Z,35.40
2018-03-25T22:50:06.089Z,37.53
2018-03-25T22:52:34.325Z,38.90
2018-03-25T22:55:01.807Z,37.93
2018-03-25T22:57:29.281Z,35.80
2018-03-25T22:59:56.749Z,36.60
2018-03-25T23:02:24.990Z,41.90
2018-03-25T23:04:52.464Z,33.33
2018-03-25T23:07:19.946Z,33.97
2018-03-25T23:09:48.186Z,37.00
2018-03-25T23:12:15.664Z,36.10
2018-03-25T23:14:43.130Z,41.77
2018-03-25T23:17:11.382Z,37.10
2018-03-25T23:19:38.857Z,38.27
2018-03-25T23:22:06.340Z,38.23
2018-03-25T23:24:34.576Z,44.17
2018-03-25T23:27:02.044Z,39.43
2018-03-25T23:29:29.517Z,38.03
2018-03-25T23:31:57.757Z,41.17
2018-03-25T23:34:25.982Z,41.50
2018-03-25T23:36:53.446Z,36.17
2018-03-25T23:39:20.901Z,46.67
2018-03-25T23:41:48.377Z,45.40
2018-03-25T23:44:15.851Z,41.90
2018-03-25T23:46:43.329Z,38.40
2018-03-25T23:49:10.799Z,40.83
2018-03-25T23:51:38.270Z,41.70
2018-03-25T23:54:06.509Z,46.60
2018-03-25T23:56:33.983Z,40.57
2018-03-25T23:59:01.454Z,45.80
